createdAt,value
2023-07-11T00:04:19.595Z,101547.97
2023-07-11T00:09:22.746Z,101541.22
2023-07-11T00:14:24.718Z,101541.72
2023-07-11T00:19:26.473Z,101542.16
2023-07-11T00:24:28.156Z,101535.00
2023-07-11T00:29:29.806Z,101526.94
2023-07-11T00:34:33.946Z,101511.63
2023-07-11T00:39:36.782Z,101511.06
2023-07-11T00:44:58.426Z,101515.25
2023-07-11T00:50:04.914Z,101498.09
2023-07-11T00:55:11.398Z,101482.91
2023-07-11T01:00:13.823Z,101488.81
2023-07-11T01:05:15.576Z,101486.94
2023-07-11T01:10:17.489Z,101470.88
2023-07-11T01:15:19.129Z,101457.44
2023-07-11T01:20:24.090Z,101450.16
2023-07-11T01:25:25.817Z,101446.63
2023-07-11T01:30:27.688Z,101438.47
2023-07-11T01:35:29.384Z,101437.22
2023-07-11T01:40:31.173Z,101428.22
2023-07-11T01:45:33.940Z,101422.72
2023-07-11T01:50:36.649Z,101410.38
2023-07-11T01:55:38.509Z,101392.97
2023-07-11T02:00:40.810Z,101391.88
2023-07-11T02:05:42.648Z,101393.59
2023-07-11T02:10:44.932Z,101382.88
2023-07-11T02:15:46.672Z,101373.41
2023-07-11T02:20:48.706Z,101365.97
2023-07-11T02:25:54.364Z,101351.66
2023-07-11T02:30:56.499Z,101337.53
2023-07-11T02:35:58.168Z,101332.00
2023-07-11T02:40:59.787Z,101329.88
2023-07-11T02:46:01.784Z,101319.81
2023-07-11T02:51:03.988Z,101316.63
2023-07-11T02:56:06.098Z,101314.53
2023-07-11T03:01:08.306Z,101300.63
2023-07-11T03:06:10.327Z,101298.91
2023-07-11T03:11:11.953Z,101293.56
2023-07-11T03:16:13.872Z,101283.94
2023-07-11T03:21:15.584Z,101282.06
2023-07-11T03:26:17.279Z,101283.78
2023-07-11T03:31:19.264Z,101272.63
2023-07-11T03:36:21.736Z,101264.56
2023-07-11T03:41:25.514Z,101260.75
2023-07-11T03:46:27.283Z,101251.34
2023-07-11T03:51:29.158Z,101240.88
2023-07-11T03:56:30.891Z,101241.88
2023-07-11T04:01:34.857Z,101236.13
2023-07-11T04:06:36.766Z,101233.34
2023-07-11T04:11:38.437Z,101227.38
2023-07-11T04:16:40.258Z,101228.78
2023-07-11T04:21:42.109Z,101223.19
2023-07-11T04:26:44.036Z,101224.19
2023-07-11T04:31:45.779Z,101210.69
2023-07-11T04:36:47.521Z,101217.19
2023-07-11T04:41:49.337Z,101190.22
2023-07-11T04:46:51.150Z,101194.25
2023-07-11T04:51:52.961Z,101190.13
2023-07-11T04:56:59.629Z,101179.38
2023-07-11T05:02:03.604Z,101173.31
2023-07-11T05:07:05.769Z,101169.44
2023-07-11T05:12:07.767Z,101152.59
2023-07-11T05:17:09.598Z,101151.84
2023-07-11T05:22:11.411Z,101148.56
2023-07-11T05:27:13.285Z,101139.72
2023-07-11T05:32:15.797Z,101139.78
2023-07-11T05:37:17.641Z,101130.13
2023-07-11T05:42:19.318Z,101127.63
2023-07-11T05:47:21.176Z,101130.53
2023-07-11T05:52:23.065Z,101117.78
2023-07-11T05:57:24.802Z,101117.97
2023-07-11T06:02:26.513Z,101106.59
2023-07-11T06:07:29.630Z,101102.56
2023-07-11T06:12:31.801Z,101107.72
2023-07-11T06:17:34.388Z,101104.44
2023-07-11T06:22:36.999Z,101092.03
2023-07-11T06:27:38.653Z,101092.78
2023-07-11T06:32:40.860Z,101090.94
2023-07-11T06:37:42.824Z,101090.59
2023-07-11T06:42:44.564Z,101088.28
2023-07-11T06:47:46.285Z,101088.88
2023-07-11T06:52:47.990Z,101079.50
2023-07-11T06:57:49.647Z,101081.72
2023-07-11T07:02:51.400Z,101084.13
2023-07-11T07:08:05.180Z,101076.16
2023-07-11T07:13:16.280Z,101072.22
2023-07-11T07:18:18.766Z,101076.69
2023-07-11T07:23:21.182Z,101069.81
2023-07-11T07:28:23.667Z,101071.59
2023-07-11T07:33:27.590Z,101072.91
2023-07-11T07:38:29.962Z,101056.00
2023-07-11T07:43:34.028Z,101067.22
2023-07-11T07:48:35.895Z,101060.34
2023-07-11T07:53:37.965Z,101059.69
2023-07-11T07:58:43.956Z,101069.97
2023-07-11T08:03:46.899Z,101065.78
2023-07-11T08:08:50.081Z,101060.34
2023-07-11T08:14:00.106Z,101068.34
2023-07-11T08:19:07.270Z,101060.69
2023-07-11T08:24:09.744Z,101077.69
2023-07-11T08:29:24.258Z,101079.03
2023-07-11T08:34:30.990Z,101074.09
2023-07-11T08:39:35.291Z,101068.09
2023-07-11T08:44:51.384Z,101065.44
2023-07-11T08:50:03.386Z,101075.22
2023-07-11T08:55:25.342Z,101068.41
2023-07-11T09:00:27.924Z,101076.47
2023-07-11T09:05:33.598Z,101074.06
2023-07-11T09:10:58.134Z,101059.69
2023-07-11T09:16:57.704Z,101056.56
2023-07-11T09:22:19.081Z,101049.00
2023-07-11T09:27:38.279Z,101054.44
2023-07-11T09:32:40.994Z,101056.19
2023-07-11T09:37:47.812Z,101068.50
2023-07-11T09:42:52.221Z,101063.09
2023-07-11T09:48:04.621Z,101044.84
2023-07-11T09:53:14.428Z,101034.19
2023-07-11T09:58:17.756Z,101041.38
2023-07-11T10:03:24.452Z,101042.31
2023-07-11T10:08:49.412Z,101041.31
2023-07-11T10:13:57.782Z,101036.13
2023-07-11T10:18:59.519Z,101025.97
2023-07-11T10:24:02.159Z,101033.38
2023-07-11T10:29:19.693Z,101031.72
2023-07-11T10:34:36.311Z,101022.34
2023-07-11T10:39:50.996Z,101019.19
2023-07-11T10:45:18.504Z,101014.03
2023-07-11T10:50:45.400Z,101020.50
2023-07-11T10:55:57.144Z,101019.72
2023-07-11T11:01:17.464Z,101025.63
2023-07-11T11:06:58.663Z,101027.69
2023-07-11T11:12:13.927Z,101027.59
2023-07-11T11:17:47.470Z,101039.31
2023-07-11T11:23:03.415Z,101031.72
2023-07-11T11:28:44.588Z,101023.06
2023-07-11T11:33:58.068Z,101038.72
2023-07-11T11:39:38.834Z,101034.00
2023-07-11T11:54:59.454Z,101026.25
2023-07-11T12:00:03.720Z,101014.16
2023-07-11T12:05:20.711Z,101009.94
2023-07-11T12:10:25.799Z,101007.03
2023-07-11T12:15:38.168Z,101000.53
2023-07-11T12:20:40.185Z,101007.53
2023-07-11T12:25:41.985Z,101010.28
2023-07-11T12:30:45.524Z,101006.38
2023-07-11T12:35:54.347Z,101017.66
2023-07-11T12:41:35.424Z,101010.16
2023-07-11T12:46:50.027Z,101013.28
2023-07-11T12:51:51.944Z,101010.34
2023-07-11T12:56:53.974Z,101007.38
2023-07-11T13:01:59.957Z,101006.78
2023-07-11T13:07:04.029Z,101003.66
2023-07-11T13:12:08.940Z,100995.69
2023-07-11T13:17:14.492Z,100982.41
2023-07-11T13:22:20.266Z,100983.91
2023-07-11T13:27:28.811Z,100990.09
2023-07-11T13:32:30.613Z,100987.72
2023-07-11T13:37:41.299Z,100993.91
2023-07-11T13:42:45.103Z,100982.13
2023-07-11T13:47:49.164Z,100980.75
2023-07-11T13:52:57.026Z,100971.25
2023-07-11T13:58:00.138Z,100966.72
2023-07-11T14:03:04.708Z,100956.34
2023-07-11T14:08:09.838Z,100965.63
2023-07-11T14:13:23.017Z,100971.09
2023-07-11T14:18:25.350Z,100961.59
2023-07-11T14:23:33.931Z,100960.00
2023-07-11T14:28:36.073Z,100961.13
2023-07-11T14:33:37.941Z,100964.19
2023-07-11T14:38:39.635Z,100948.66
2023-07-11T14:43:41.432Z,100950.94
2023-07-11T14:48:43.050Z,100954.50
2023-07-11T14:53:46.017Z,100952.75
2023-07-11T14:58:50.841Z,100944.13
2023-07-11T15:19:23.742Z,100927.34
2023-07-11T15:24:26.011Z,100928.94
2023-07-11T15:29:27.695Z,100918.28
2023-07-11T15:34:29.637Z,100918.88
2023-07-11T15:39:31.715Z,100904.97
2023-07-11T15:44:43.411Z,100900.91
2023-07-11T15:49:45.275Z,100887.34
2023-07-11T15:54:47.306Z,100889.44
2023-07-11T15:59:49.241Z,100884.63
2023-07-11T16:04:51.450Z,100884.06
2023-07-11T16:09:53.148Z,100871.97
2023-07-11T16:14:55.684Z,100869.69
2023-07-11T16:19:58.311Z,100871.38
2023-07-11T16:25:01.604Z,100858.72
2023-07-11T16:30:27.039Z,100860.09
2023-07-11T16:35:37.579Z,100866.25
2023-07-11T16:40:39.734Z,100862.41
2023-07-11T16:45:42.072Z,100863.59
2023-07-11T16:50:43.877Z,100850.19
2023-07-11T16:55:45.910Z,100853.56
2023-07-11T17:00:49.059Z,100846.44
2023-07-11T17:05:51.160Z,100824.97
2023-07-11T17:10:55.461Z,100834.03
2023-07-11T17:15:59.305Z,100833.94
2023-07-11T17:21:02.042Z,100839.97
2023-07-11T17:26:03.969Z,100840.09
2023-07-11T17:31:05.922Z,100830.34
2023-07-11T17:36:13.418Z,100812.97
2023-07-11T17:41:16.769Z,100816.28
2023-07-11T17:51:23.346Z,100813.13
2023-07-11T17:56:29.582Z,100800.94
2023-07-11T18:01:36.809Z,100800.13
2023-07-11T18:06:39.403Z,100797.44
2023-07-11T18:11:41.062Z,100788.75
2023-07-11T18:16:43.699Z,100775.22
2023-07-11T18:21:45.487Z,100771.63
2023-07-11T18:26:47.288Z,100765.31
2023-07-11T18:31:49.116Z,100755.28
2023-07-11T18:36:50.788Z,100754.09
2023-07-11T18:41:52.529Z,100756.75
2023-07-11T18:46:54.604Z,100747.06
2023-07-11T18:51:56.342Z,100746.13
2023-07-11T18:56:58.605Z,100744.06
2023-07-11T19:02:00.453Z,100731.91
2023-07-11T19:07:02.130Z,100730.88
2023-07-11T19:12:19.007Z,100731.53
2023-07-11T19:17:35.626Z,100750.25
2023-07-11T19:22:41.841Z,100745.63
2023-07-11T19:27:46.235Z,100728.47
2023-07-11T19:32:50.508Z,100726.19
2023-07-11T19:37:55.010Z,100727.44
2023-07-11T19:43:00.576Z,100731.41
2023-07-11T19:48:04.007Z,100710.97
2023-07-11T19:53:08.877Z,100689.44
2023-07-11T19:58:17.697Z,100705.91
2023-07-11T20:03:19.403Z,100709.00
2023-07-11T20:08:24.529Z,100723.44
2023-07-11T20:13:29.799Z,100709.34
2023-07-11T20:18:33.746Z,100709.34
2023-07-11T20:23:36.425Z,100703.78
2023-07-11T20:28:38.091Z,100713.59
2023-07-11T20:33:40.697Z,100703.50
2023-07-11T20:38:42.811Z,100699.72
2023-07-11T20:43:45.544Z,100696.41
2023-07-11T20:48:48.674Z,100702.84
2023-07-11T20:53:50.387Z,100710.09
2023-07-11T20:58:56.073Z,100731.47
2023-07-11T21:03:58.090Z,100721.13
2023-07-11T21:09:00.906Z,100703.22
2023-07-11T21:14:03.805Z,100696.97
2023-07-11T21:19:07.123Z,100698.31
2023-07-11T21:24:09.403Z,100692.91
2023-07-11T21:29:14.308Z,100693.13
2023-07-11T21:34:16.596Z,100705.44
2023-07-11T21:39:18.542Z,100713.25
2023-07-11T21:44:20.256Z,100710.72
2023-07-11T21:49:22.639Z,100706.38
2023-07-11T21:54:24.360Z,100725.94
2023-07-11T21:59:26.185Z,100711.28
2023-07-11T22:04:27.855Z,100724.78
2023-07-11T22:09:29.570Z,100706.56
2023-07-11T22:14:31.203Z,100721.25
2023-07-11T22:19:35.327Z,100728.34
2023-07-11T22:24:38.365Z,100729.53
2023-07-11T22:29:40.002Z,100712.31
2023-07-11T22:34:43.690Z,100715.75
2023-07-11T22:39:45.419Z,100715.13
2023-07-11T22:44:47.046Z,100726.81
2023-07-11T22:49:48.801Z,100722.69
2023-07-11T22:54:50.947Z,100708.50
2023-07-11T22:59:52.631Z,100713.09
2023-07-11T23:04:54.697Z,100715.03
2023-07-11T23:09:56.451Z,100701.78
2023-07-11T23:14:58.125Z,100689.16
2023-07-11T23:19:59.956Z,100703.88
2023-07-11T23:25:04.158Z,100703.00
2023-07-11T23:30:15.934Z,100698.63
2023-07-11T23:35:19.318Z,100699.50
2023-07-11T23:40:24.448Z,100691.72
2023-07-11T23:45:29.831Z,100703.28
2023-07-11T23:50:37.326Z,100714.31
2023-07-11T23:55:38.976Z,100722.94
